Time;durP1;ratioP1;P1;durP2;ratioP2;P2;SDS_P1;SDS_P2;PMS_P1;PMS_P2;Temp;Humidity;BMP_temperature;BMP_pressure;BME280_temperature;BME280_humidity;BME280_pressure;Samples;Min_cycle;Max_cycle;Signal;HPM_P1;HPM_P2
2021/10/26 00:00:06;;;;;;;15.82;10.38;;;12.50;92.20;;;;;;2073848;28;20643;-91
2021/10/26 00:01:07;;;;;;;13.18;9.85;;;12.50;92.50;;;;;;2074405;28;20040;-91
2021/10/26 00:02:08;;;;;;;13.95;9.60;;;12.50;92.20;;;;;;2084628;28;20558;-90
2021/10/26 00:03:08;;;;;;;14.68;10.00;;;12.50;92.20;;;;;;2073884;28;20420;-91
2021/10/26 00:04:10;;;;;;;15.18;10.23;;;12.50;92.20;;;;;;2081966;28;20509;-91
2021/10/26 00:05:11;;;;;;;11.82;9.25;;;12.50;92.20;;;;;;2087706;28;20036;-90
2021/10/26 00:06:12;;;;;;;13.00;9.35;;;12.50;92.20;;;;;;2065840;28;20076;-91
2021/10/26 00:07:12;;;;;;;11.80;9.73;;;12.50;92.20;;;;;;2068698;28;20436;-91
2021/10/26 00:08:13;;;;;;;12.90;9.43;;;12.50;92.20;;;;;;2076261;28;20451;-91
2021/10/26 00:09:15;;;;;;;15.40;10.63;;;12.50;92.20;;;;;;2057780;28;20074;-91
2021/10/26 00:10:16;;;;;;;14.43;9.93;;;12.50;92.20;;;;;;2049822;28;20129;-91
2021/10/26 00:11:17;;;;;;;13.43;9.63;;;12.50;92.20;;;;;;2072895;28;20046;-90
2021/10/26 00:12:17;;;;;;;13.55;9.65;;;12.50;92.20;;;;;;2070993;28;20444;-91
2021/10/26 00:13:18;;;;;;;14.32;10.50;;;12.50;92.20;;;;;;2065803;28;20496;-91
2021/10/26 00:14:19;;;;;;;12.57;10.05;;;12.50;92.20;;;;;;2074473;28;20041;-91
2021/10/26 00:15:20;;;;;;;13.00;9.77;;;12.50;92.50;;;;;;2074224;28;20030;-91
2021/10/26 00:16:21;;;;;;;13.98;10.35;;;12.50;92.20;;;;;;2076567;28;20045;-91
2021/10/26 00:17:21;;;;;;;13.20;10.10;;;12.50;92.20;;;;;;2066729;28;20121;-91
2021/10/26 00:18:22;;;;;;;12.52;9.50;;;12.50;92.20;;;;;;2074031;28;20516;-91
2021/10/26 00:19:24;;;;;;;12.75;9.90;;;12.50;92.20;;;;;;2074372;28;20559;-90
2021/10/26 00:20:25;;;;;;;13.35;10.25;;;12.50;92.20;;;;;;2076250;28;20592;-92
2021/10/26 00:21:26;;;;;;;13.27;10.13;;;12.50;92.20;;;;;;2057570;28;20940;-91
2021/10/26 00:22:26;;;;;;;14.38;10.45;;;12.50;92.20;;;;;;2061211;28;20544;-91
2021/10/26 00:23:27;;;;;;;15.90;10.85;;;12.50;92.20;;;;;;2065687;28;20141;-91
2021/10/26 00:24:28;;;;;;;15.68;10.88;;;12.50;92.20;;;;;;2065463;28;20137;-90
2021/10/26 00:25:28;;;;;;;14.77;10.73;;;12.50;92.20;;;;;;2072404;28;20034;-90
2021/10/26 00:26:30;;;;;;;14.73;10.38;;;12.50;92.20;;;;;;2065420;28;20042;-91
2021/10/26 00:27:31;;;;;;;14.52;10.65;;;12.50;92.20;;;;;;2069253;28;20060;-91
2021/10/26 00:28:34;;;;;;;13.70;10.35;;;12.50;92.20;;;;;;2073090;28;20045;-91
2021/10/26 00:29:34;;;;;;;15.25;10.43;;;12.50;92.20;;;;;;2073723;28;20036;-90
2021/10/26 00:30:35;;;;;;;13.50;9.95;;;12.50;92.20;;;;;;2069372;28;20046;-90
2021/10/26 00:31:36;;;;;;;13.55;10.00;;;12.50;92.20;;;;;;2064967;28;20551;-90
2021/10/26 00:32:36;;;;;;;12.32;9.40;;;12.50;92.30;;;;;;2065717;28;20069;-90
2021/10/26 00:33:37;;;;;;;14.35;9.85;;;12.50;92.20;;;;;;2066670;28;20069;-91
2021/10/26 00:34:38;;;;;;;12.60;9.77;;;12.50;92.20;;;;;;2069106;28;20144;-90
2021/10/26 00:35:39;;;;;;;13.13;9.48;;;12.50;92.20;;;;;;2068284;28;20385;-90
2021/10/26 00:36:39;;;;;;;12.15;9.60;;;12.50;92.20;;;;;;2066374;28;20053;-91
2021/10/26 00:37:40;;;;;;;12.90;9.88;;;12.50;92.30;;;;;;2065432;28;20092;-91
2021/10/26 00:38:41;;;;;;;13.82;9.98;;;12.50;92.30;;;;;;2057053;28;20047;-91
2021/10/26 00:39:42;;;;;;;14.00;10.05;;;12.50;92.30;;;;;;2065522;28;20125;-92
2021/10/26 00:40:43;;;;;;;12.75;9.98;;;12.60;92.30;;;;;;2070322;28;20033;-91
2021/10/26 00:41:46;;;;;;;12.85;9.65;;;12.50;92.20;;;;;;2057369;28;20138;-90
2021/10/26 00:42:47;;;;;;;13.50;9.90;;;12.50;92.30;;;;;;2056572;28;20042;-90
2021/10/26 00:43:49;;;;;;;12.73;9.48;;;12.50;92.20;;;;;;2049712;28;20039;-91
2021/10/26 00:44:49;;;;;;;13.80;10.23;;;12.50;92.20;;;;;;2065606;28;20034;-90
2021/10/26 00:45:50;;;;;;;14.25;10.75;;;12.50;92.20;;;;;;2071216;28;20483;-91
2021/10/26 00:46:51;;;;;;;14.30;11.20;;;12.60;92.30;;;;;;2056804;28;20429;-91
2021/10/26 00:47:51;;;;;;;16.58;11.77;;;12.60;92.30;;;;;;2057905;28;20093;-91
2021/10/26 00:48:52;;;;;;;14.40;10.80;;;12.50;92.20;;;;;;2065247;28;20466;-91
2021/10/26 00:49:53;;;;;;;14.38;11.13;;;12.50;92.20;;;;;;2051021;29;20031;-90
2021/10/26 00:50:54;;;;;;;16.25;11.25;;;12.50;92.50;;;;;;2059986;28;20386;-90
2021/10/26 00:51:55;;;;;;;14.75;11.07;;;12.50;92.20;;;;;;2068650;28;20034;-91
2021/10/26 00:52:56;;;;;;;14.73;12.07;;;12.50;92.20;;;;;;2076655;28;20046;-91
2021/10/26 00:53:58;;;;;;;15.00;11.02;;;12.50;92.20;;;;;;2076760;28;20536;-91
2021/10/26 00:54:59;;;;;;;14.65;10.75;;;12.50;92.20;;;;;;2074126;28;20041;-91
2021/10/26 00:56:00;;;;;;;14.15;11.20;;;12.50;92.30;;;;;;2073567;28;20033;-90
2021/10/26 00:57:01;;;;;;;16.17;11.40;;;12.50;92.30;;;;;;2065779;28;20093;-91
2021/10/26 00:58:02;;;;;;;13.90;10.88;;;12.50;92.30;;;;;;2069271;28;20022;-91
2021/10/26 00:59:03;;;;;;;15.18;10.98;;;12.50;92.30;;;;;;2072789;28;20073;-91
2021/10/26 01:00:06;;;;;;;16.17;11.10;;;12.50;92.30;;;;;;2075075;28;20504;-91
2021/10/26 01:01:07;;;;;;;16.55;11.40;;;12.50;92.30;;;;;;2073390;28;20022;-90
2021/10/26 01:02:07;;;;;;;16.65;11.73;;;12.50;92.30;;;;;;2087307;28;20215;-90
2021/10/26 01:03:08;;;;;;;16.80;12.10;;;12.50;92.30;;;;;;2075471;28;20062;-91
2021/10/26 01:04:09;;;;;;;14.77;11.50;;;12.50;92.30;;;;;;2065446;28;20057;-90
2021/10/26 01:05:10;;;;;;;15.40;11.38;;;12.50;92.30;;;;;;2070561;28;20066;-90
2021/10/26 01:06:11;;;;;;;14.43;10.85;;;12.50;92.30;;;;;;2077647;28;20025;-90
2021/10/26 01:07:13;;;;;;;14.93;11.27;;;12.50;92.30;;;;;;2077492;28;20035;-90
2021/10/26 01:08:13;;;;;;;15.05;11.38;;;12.50;92.30;;;;;;2068886;28;20034;-91
2021/10/26 01:09:15;;;;;;;14.13;10.95;;;12.50;92.30;;;;;;2065564;28;20061;-90
2021/10/26 01:10:16;;;;;;;14.93;11.48;;;12.50;92.30;;;;;;2073677;28;20042;-91
2021/10/26 01:11:17;;;;;;;15.15;11.45;;;12.50;92.30;;;;;;2071580;28;20031;-91
2021/10/26 01:12:18;;;;;;;15.65;12.00;;;12.50;92.30;;;;;;2065441;28;20049;-90
2021/10/26 01:13:24;;;;;;;14.70;11.18;;;12.50;92.30;;;;;;2056957;28;20067;-91
2021/10/26 01:14:25;;;;;;;15.20;10.80;;;12.50;92.30;;;;;;2066091;28;20046;-90
2021/10/26 01:15:26;;;;;;;15.70;11.50;;;12.50;92.30;;;;;;2068964;28;20404;-91
2021/10/26 01:16:27;;;;;;;15.60;11.15;;;12.50;92.30;;;;;;2070564;28;20116;-90
2021/10/26 01:17:27;;;;;;;15.40;11.65;;;12.50;92.30;;;;;;2076364;28;20466;-91
2021/10/26 01:18:28;;;;;;;14.85;11.00;;;12.50;92.30;;;;;;2067430;28;20040;-90
2021/10/26 01:19:42;;;;;;;14.93;11.60;;;12.50;92.60;;;;;;2058219;28;20126;-91
2021/10/26 01:20:45;;;;;;;14.43;11.73;;;12.50;92.30;;;;;;2067299;28;20034;-91
2021/10/26 01:21:46;;;;;;;14.23;10.90;;;12.50;92.30;;;;;;2079802;28;20136;-92
2021/10/26 01:22:46;;;;;;;14.13;10.65;;;12.50;92.30;;;;;;2072226;28;20033;-91
2021/10/26 01:23:49;;;;;;;15.07;11.63;;;12.50;92.30;;;;;;2073397;28;20030;-91
2021/10/26 01:24:50;;;;;;;15.05;11.20;;;12.50;92.60;;;;;;2073711;28;20049;-91
2021/10/26 01:25:51;;;;;;;14.40;11.20;;;12.60;92.40;;;;;;2074707;28;20044;-91
2021/10/26 01:26:52;;;;;;;14.52;11.63;;;12.60;92.40;;;;;;2080558;28;20041;-91
2021/10/26 01:27:53;;;;;;;14.48;10.82;;;12.50;92.40;;;;;;2081605;28;20483;-90
2021/10/26 01:28:54;;;;;;;15.25;10.80;;;12.50;92.40;;;;;;2073612;28;20496;-90
2021/10/26 01:29:55;;;;;;;16.33;11.63;;;12.60;92.70;;;;;;2073095;28;20042;-91
2021/10/26 01:30:55;;;;;;;15.57;11.52;;;12.50;92.40;;;;;;2079310;28;20036;-91
2021/10/26 01:31:58;;;;;;;15.10;11.30;;;12.50;92.40;;;;;;2073223;28;20129;-91
2021/10/26 01:32:59;;;;;;;16.85;12.00;;;12.50;92.40;;;;;;2073950;28;20107;-91
2021/10/26 01:34:00;;;;;;;15.82;12.00;;;12.50;92.40;;;;;;2073426;28;20484;-91
2021/10/26 01:35:00;;;;;;;15.50;11.10;;;12.50;92.70;;;;;;2073553;28;20065;-90
2021/10/26 01:36:01;;;;;;;17.42;12.63;;;12.60;92.40;;;;;;2065369;28;20065;-91
2021/10/26 01:37:04;;;;;;;15.95;12.18;;;12.50;92.40;;;;;;2073537;28;20038;-90
2021/10/26 01:38:06;;;;;;;16.08;11.88;;;12.50;92.40;;;;;;2082287;28;20048;-90
2021/10/26 01:39:07;;;;;;;15.13;11.90;;;12.50;92.40;;;;;;2076187;28;20133;-90
2021/10/26 01:40:08;;;;;;;16.65;12.27;;;12.50;92.40;;;;;;2073590;28;20042;-90
2021/10/26 01:41:09;;;;;;;19.20;12.25;;;12.50;92.40;;;;;;2076247;28;20040;-91
2021/10/26 01:42:10;;;;;;;15.65;11.90;;;12.50;92.40;;;;;;2081651;28;20041;-91
2021/10/26 01:43:11;;;;;;;16.50;11.52;;;12.50;92.40;;;;;;2063194;28;20035;-91
2021/10/26 01:44:11;;;;;;;17.42;12.10;;;12.50;92.50;;;;;;2057299;28;20082;-91
2021/10/26 01:45:12;;;;;;;15.77;11.38;;;12.50;92.40;;;;;;2065255;28;20053;-89
2021/10/26 01:46:13;;;;;;;16.83;12.50;;;12.50;92.50;;;;;;2063882;28;20132;-91
2021/10/26 01:47:14;;;;;;;16.77;12.50;;;12.50;92.50;;;;;;2072789;28;20096;-90
2021/10/26 01:48:14;;;;;;;15.82;11.95;;;12.50;92.50;;;;;;2073286;28;20045;-91
2021/10/26 01:49:15;;;;;;;14.70;12.13;;;12.50;92.50;;;;;;2077911;28;20042;-90
2021/10/26 01:50:18;;;;;;;16.42;12.82;;;12.50;92.50;;;;;;2073930;28;20566;-90
2021/10/26 01:51:19;;;;;;;16.42;12.68;;;12.50;92.50;;;;;;2079494;28;20037;-91
2021/10/26 01:52:20;;;;;;;16.98;12.57;;;12.50;92.50;;;;;;2077009;28;20471;-92
2021/10/26 01:53:20;;;;;;;16.73;12.63;;;12.50;92.50;;;;;;2073181;28;20046;-92
2021/10/26 01:54:22;;;;;;;17.05;12.88;;;12.50;92.50;;;;;;2074839;28;20508;-90
2021/10/26 01:55:23;;;;;;;18.08;12.82;;;12.50;92.50;;;;;;2082262;28;20455;-90
2021/10/26 01:56:23;;;;;;;15.45;12.48;;;12.50;92.50;;;;;;2075078;28;20042;-92
2021/10/26 01:57:27;;;;;;;17.23;13.02;;;12.50;92.50;;;;;;2074957;28;20408;-91
2021/10/26 01:58:27;;;;;;;18.80;13.70;;;12.50;92.50;;;;;;2075236;28;20121;-91
2021/10/26 01:59:29;;;;;;;16.58;13.45;;;12.50;92.50;;;;;;2081667;28;20100;-91
2021/10/26 02:00:30;;;;;;;20.17;13.43;;;12.50;92.50;;;;;;2083640;28;20120;-91
2021/10/26 02:01:31;;;;;;;17.65;13.15;;;12.50;92.80;;;;;;2074839;28;20488;-91
2021/10/26 02:02:31;;;;;;;17.48;13.18;;;12.50;92.50;;;;;;2072258;28;21926;-90
2021/10/26 02:03:32;;;;;;;18.88;14.15;;;12.50;92.50;;;;;;2075455;28;20050;-91
2021/10/26 02:04:32;;;;;;;18.05;13.55;;;12.50;92.60;;;;;;2074980;28;20105;-91
2021/10/26 02:05:33;;;;;;;17.38;13.35;;;12.50;92.60;;;;;;2072646;28;20042;-91
2021/10/26 02:06:34;;;;;;;17.30;13.75;;;12.40;92.50;;;;;;2066494;28;20104;-92
2021/10/26 02:07:35;;;;;;;16.70;13.60;;;12.50;92.60;;;;;;2074946;28;20030;-91
2021/10/26 02:08:35;;;;;;;19.23;13.60;;;12.40;92.60;;;;;;2070581;28;20050;-91
2021/10/26 02:09:36;;;;;;;17.52;13.13;;;12.40;92.60;;;;;;2071143;28;20092;-91
2021/10/26 02:10:37;;;;;;;17.25;13.73;;;12.40;92.60;;;;;;2076134;28;20056;-91
2021/10/26 02:11:37;;;;;;;19.02;13.88;;;12.40;92.60;;;;;;2065740;28;20133;-90
2021/10/26 02:12:39;;;;;;;16.67;12.70;;;12.40;92.60;;;;;;2058176;28;20039;-91
2021/10/26 02:13:39;;;;;;;16.10;12.82;;;12.40;92.60;;;;;;2074610;28;20041;-91
2021/10/26 02:14:40;;;;;;;17.80;14.07;;;12.40;92.60;;;;;;2077384;28;20479;-90
2021/10/26 02:15:41;;;;;;;19.92;14.55;;;12.40;92.60;;;;;;2075682;28;20115;-91
2021/10/26 02:16:42;;;;;;;17.63;14.20;;;12.40;92.60;;;;;;2074710;28;20054;-90
2021/10/26 02:17:43;;;;;;;19.77;13.38;;;12.40;92.60;;;;;;2074592;28;20054;-91
2021/10/26 02:18:44;;;;;;;17.85;13.63;;;12.40;92.70;;;;;;2074507;28;20088;-91
2021/10/26 02:19:44;;;;;;;18.23;13.35;;;12.40;92.70;;;;;;2075213;28;20038;-90
2021/10/26 02:20:45;;;;;;;19.42;14.63;;;12.40;92.70;;;;;;2075274;28;20526;-91
2021/10/26 02:21:45;;;;;;;19.90;13.75;;;12.40;92.70;;;;;;2074617;28;20133;-91
2021/10/26 02:22:46;;;;;;;18.23;14.13;;;12.40;92.70;;;;;;2074833;28;20120;-91
2021/10/26 02:23:47;;;;;;;18.00;13.27;;;12.40;92.70;;;;;;2071589;28;20400;-91
2021/10/26 02:24:49;;;;;;;19.23;13.82;;;12.40;92.70;;;;;;2067460;28;20215;-90
2021/10/26 02:25:49;;;;;;;18.63;13.82;;;12.40;92.70;;;;;;2075330;28;20412;-91
2021/10/26 02:26:51;;;;;;;19.10;14.05;;;12.40;92.70;;;;;;2075355;28;20046;-90
2021/10/26 02:27:51;;;;;;;20.00;13.50;;;12.40;92.70;;;;;;2066631;28;20474;-91
2021/10/26 02:28:52;;;;;;;18.27;13.82;;;12.40;92.70;;;;;;2059475;28;20097;-91
2021/10/26 02:29:53;;;;;;;18.88;14.15;;;12.40;92.70;;;;;;2074642;28;20443;-91
2021/10/26 02:30:55;;;;;;;16.58;12.95;;;12.40;92.70;;;;;;2065709;28;20073;-90
2021/10/26 02:31:56;;;;;;;19.27;13.85;;;12.40;92.70;;;;;;2066129;28;20034;-92
2021/10/26 02:32:56;;;;;;;18.85;14.45;;;12.40;92.70;;;;;;2073303;28;20520;-90
2021/10/26 02:33:57;;;;;;;18.35;13.63;;;12.40;92.70;;;;;;2080505;28;20475;-91
2021/10/26 02:34:58;;;;;;;16.33;12.93;;;12.40;92.70;;;;;;2074803;28;20045;-91
2021/10/26 02:35:58;;;;;;;19.83;13.63;;;12.40;92.70;;;;;;2074393;28;20477;-89
2021/10/26 02:36:59;;;;;;;18.40;13.98;;;12.40;92.70;;;;;;2075304;28;20053;-91
2021/10/26 02:38:00;;;;;;;18.02;13.57;;;12.40;92.70;;;;;;2068334;28;20034;-90
2021/10/26 02:39:04;;;;;;;18.50;13.68;;;12.40;92.70;;;;;;2076833;28;20038;-91
2021/10/26 02:40:05;;;;;;;18.60;13.73;;;12.40;92.70;;;;;;2075321;28;20029;-91
2021/10/26 02:41:06;;;;;;;17.33;13.75;;;12.40;92.70;;;;;;2081547;28;20480;-91
2021/10/26 02:42:06;;;;;;;20.05;14.77;;;12.40;92.70;;;;;;2080158;28;20049;-91
2021/10/26 02:43:07;;;;;;;17.85;13.75;;;12.40;92.70;;;;;;2074867;28;20041;-91
2021/10/26 02:44:08;;;;;;;20.50;14.18;;;12.40;92.70;;;;;;2065473;28;20037;-88
2021/10/26 02:45:09;;;;;;;18.55;13.38;;;12.40;92.70;;;;;;2065307;28;20034;-91
2021/10/26 02:46:10;;;;;;;18.90;14.55;;;12.40;92.70;;;;;;2074851;28;20141;-90
2021/10/26 02:47:10;;;;;;;19.38;14.40;;;12.40;92.70;;;;;;2074734;28;20080;-91
2021/10/26 02:48:12;;;;;;;18.90;14.32;;;12.40;92.80;;;;;;2080057;28;20033;-90
2021/10/26 02:49:14;;;;;;;19.55;14.20;;;12.40;92.80;;;;;;2074638;28;20459;-90
2021/10/26 02:50:16;;;;;;;18.45;14.27;;;12.40;92.80;;;;;;2059800;28;20058;-90
2021/10/26 02:51:17;;;;;;;18.35;14.02;;;12.40;92.80;;;;;;2050814;28;20425;-91
2021/10/26 02:52:18;;;;;;;16.98;13.15;;;12.40;92.80;;;;;;2058432;28;20035;-91
2021/10/26 02:53:19;;;;;;;18.90;13.60;;;12.40;92.80;;;;;;2050571;28;20082;-90
2021/10/26 02:54:19;;;;;;;17.85;13.77;;;12.40;92.80;;;;;;2065964;28;20038;-90
2021/10/26 02:55:20;;;;;;;18.65;14.30;;;12.40;92.80;;;;;;2082870;28;20120;-90
2021/10/26 02:56:20;;;;;;;20.45;14.60;;;12.40;92.80;;;;;;2066184;28;20416;-91
2021/10/26 02:57:21;;;;;;;18.13;13.40;;;12.40;92.80;;;;;;2074218;28;20033;-91
2021/10/26 02:58:22;;;;;;;20.35;14.02;;;12.40;92.80;;;;;;2082622;28;20641;-91
2021/10/26 02:59:24;;;;;;;17.80;13.85;;;12.40;92.80;;;;;;2075072;28;20424;-92
2021/10/26 03:00:25;;;;;;;17.52;13.93;;;12.40;92.80;;;;;;2066450;28;20580;-91
2021/10/26 03:01:26;;;;;;;20.58;14.15;;;12.40;92.80;;;;;;2066143;28;20039;-91
2021/10/26 03:02:26;;;;;;;20.00;14.10;;;12.40;92.80;;;;;;2073698;28;20039;-91
2021/10/26 03:03:27;;;;;;;18.20;13.75;;;12.40;92.80;;;;;;2066292;28;20038;-91
2021/10/26 03:04:27;;;;;;;20.65;14.23;;;12.40;92.80;;;;;;2077834;28;20068;-92
2021/10/26 03:05:28;;;;;;;19.90;14.15;;;12.40;92.80;;;;;;2078916;28;20026;-90
2021/10/26 03:06:29;;;;;;;17.60;14.10;;;12.40;92.80;;;;;;2068683;28;20077;-91
2021/10/26 03:07:29;;;;;;;19.52;14.82;;;12.40;92.80;;;;;;2068655;28;20047;-91
2021/10/26 03:08:30;;;;;;;19.75;14.93;;;12.40;92.80;;;;;;2074303;28;20068;-91
2021/10/26 03:09:31;;;;;;;17.52;13.77;;;12.40;92.80;;;;;;2074379;28;20038;-91
2021/10/26 03:10:32;;;;;;;17.70;13.85;;;12.40;92.80;;;;;;2082668;28;20127;-91
2021/10/26 03:11:32;;;;;;;19.23;14.35;;;12.40;92.80;;;;;;2076128;28;20092;-91
2021/10/26 03:12:33;;;;;;;19.92;14.55;;;12.40;92.80;;;;;;2079259;28;22547;-91
2021/10/26 03:13:34;;;;;;;19.25;14.43;;;12.40;92.80;;;;;;2085274;28;20028;-91
2021/10/26 03:14:35;;;;;;;19.77;13.68;;;12.40;92.80;;;;;;2082445;28;20045;-91
2021/10/26 03:15:36;;;;;;;19.88;14.55;;;12.40;92.80;;;;;;2077557;28;20045;-91
2021/10/26 03:16:36;;;;;;;17.80;14.35;;;12.40;92.80;;;;;;2074388;28;20042;-91
2021/10/26 03:17:38;;;;;;;18.75;14.23;;;12.40;92.90;;;;;;2074789;28;20058;-91
2021/10/26 03:18:38;;;;;;;18.98;14.48;;;12.40;93.00;;;;;;2082601;28;20037;-90
2021/10/26 03:19:39;;;;;;;21.60;14.25;;;12.40;92.90;;;;;;2074404;28;20170;-91
2021/10/26 03:20:40;;;;;;;21.48;15.07;;;12.40;92.90;;;;;;2082716;28;20044;-91
2021/10/26 03:21:41;;;;;;;21.40;15.07;;;12.40;92.90;;;;;;2082608;28;20152;-92
2021/10/26 03:22:42;;;;;;;20.13;14.82;;;12.40;92.90;;;;;;2070714;28;20099;-91
2021/10/26 03:23:42;;;;;;;19.95;15.15;;;12.40;92.80;;;;;;2072916;28;20092;-91
2021/10/26 03:24:43;;;;;;;19.48;15.13;;;12.40;92.80;;;;;;2082473;28;20037;-91
2021/10/26 03:25:44;;;;;;;20.45;15.35;;;12.40;92.80;;;;;;2080265;28;20029;-91
2021/10/26 03:26:45;;;;;;;20.88;15.57;;;12.40;92.80;;;;;;2076999;28;20169;-91
2021/10/26 03:27:45;;;;;;;20.40;15.13;;;12.40;92.80;;;;;;2066216;28;20138;-92
2021/10/26 03:28:46;;;;;;;24.58;16.05;;;12.40;92.80;;;;;;2066290;28;20038;-91
2021/10/26 03:29:47;;;;;;;20.42;15.55;;;12.40;92.80;;;;;;2074508;28;20057;-91
2021/10/26 03:30:48;;;;;;;20.55;15.52;;;12.40;92.80;;;;;;2073658;28;20042;-91
2021/10/26 03:31:53;;;;;;;19.65;15.43;;;12.40;92.80;;;;;;2066522;28;20049;-90
2021/10/26 03:32:54;;;;;;;20.63;15.30;;;12.40;92.80;;;;;;2074484;28;20046;-91
2021/10/26 03:33:55;;;;;;;20.58;15.52;;;12.40;92.90;;;;;;2074328;28;20117;-91
2021/10/26 03:34:56;;;;;;;20.58;15.00;;;12.40;92.90;;;;;;2074003;28;20034;-91
2021/10/26 03:35:59;;;;;;;20.15;14.60;;;12.40;92.90;;;;;;2075046;28;20424;-91
2021/10/26 03:37:02;;;;;;;19.65;15.00;;;12.40;92.90;;;;;;2079175;28;20065;-91
2021/10/26 03:38:05;;;;;;;20.25;15.43;;;12.30;92.90;;;;;;2074331;28;20558;-90
2021/10/26 03:39:06;;;;;;;21.10;15.00;;;12.30;92.80;;;;;;2075642;28;20036;-91
2021/10/26 03:40:09;;;;;;;20.95;15.75;;;12.30;92.80;;;;;;2078553;28;20045;-91
2021/10/26 03:41:10;;;;;;;19.85;14.60;;;12.30;92.80;;;;;;2074799;28;20034;-91
2021/10/26 03:42:11;;;;;;;20.92;15.75;;;12.30;92.80;;;;;;2074663;28;20511;-91
2021/10/26 03:43:11;;;;;;;18.73;14.85;;;12.30;92.80;;;;;;2074546;28;20042;-91
2021/10/26 03:44:12;;;;;;;20.45;15.85;;;12.30;92.80;;;;;;2066703;28;20520;-91
2021/10/26 03:45:13;;;;;;;21.20;15.88;;;12.30;92.80;;;;;;2067303;28;20022;-92
2021/10/26 03:46:15;;;;;;;19.42;15.20;;;12.30;92.80;;;;;;2073494;28;20042;-90
2021/10/26 03:47:15;;;;;;;20.67;15.80;;;12.30;92.80;;;;;;2079656;28;20041;-92
2021/10/26 03:48:16;;;;;;;22.90;15.95;;;12.30;92.90;;;;;;2067521;28;20038;-91
2021/10/26 03:49:17;;;;;;;21.48;15.82;;;12.30;92.90;;;;;;2066598;28;20042;-91
2021/10/26 03:50:18;;;;;;;21.35;15.63;;;12.30;92.90;;;;;;2074053;28;20496;-91
2021/10/26 03:51:18;;;;;;;21.42;15.20;;;12.30;92.90;;;;;;2075495;28;20491;-91
2021/10/26 03:52:19;;;;;;;22.48;15.98;;;12.30;92.90;;;;;;2074780;28;20037;-91
2021/10/26 03:53:20;;;;;;;21.40;15.77;;;12.30;92.90;;;;;;2074013;28;20088;-91
2021/10/26 03:54:20;;;;;;;19.63;15.23;;;12.30;92.90;;;;;;2073882;28;20034;-90
2021/10/26 03:55:21;;;;;;;21.02;15.65;;;12.30;92.90;;;;;;2065667;28;20125;-92
2021/10/26 03:56:22;;;;;;;19.58;15.57;;;12.30;92.90;;;;;;2065619;28;20496;-91
2021/10/26 03:57:22;;;;;;;19.88;15.45;;;12.30;92.90;;;;;;2075328;28;20522;-91
2021/10/26 03:58:23;;;;;;;22.88;16.85;;;12.20;92.90;;;;;;2074057;28;20045;-91
2021/10/26 03:59:29;;;;;;;18.92;15.27;;;12.20;92.90;;;;;;2073627;28;20221;-91
2021/10/26 04:00:30;;;;;;;19.00;15.27;;;12.20;92.90;;;;;;2066133;28;20069;-91
2021/10/26 04:01:32;;;;;;;19.13;15.10;;;12.30;92.90;;;;;;2063731;28;20034;-90
2021/10/26 04:02:38;;;;;;;20.27;15.00;;;12.20;92.90;;;;;;2082454;28;20098;-91
2021/10/26 04:03:39;;;;;;;21.42;15.50;;;12.20;92.90;;;;;;2088551;28;20113;-92
2021/10/26 04:04:40;;;;;;;24.23;16.58;;;12.20;92.90;;;;;;2082731;28;20014;-91
2021/10/26 04:05:46;;;;;;;22.98;17.52;;;12.20;93.10;;;;;;2068200;28;20023;-90
2021/10/26 04:06:47;;;;;;;22.10;16.70;;;12.20;92.90;;;;;;2074034;28;20133;-90
2021/10/26 04:08:05;;;;;;;21.05;16.52;;;12.20;92.90;;;;;;2079130;28;20034;-90
2021/10/26 04:09:09;;;;;;;20.23;15.52;;;12.20;92.90;;;;;;2078083;28;20053;-91
2021/10/26 04:10:16;;;;;;;19.55;15.88;;;12.20;92.90;;;;;;2081128;28;20042;-91
2021/10/26 04:11:22;;;;;;;20.17;15.70;;;12.20;92.90;;;;;;2081461;28;20634;-91
2021/10/26 04:12:25;;;;;;;20.60;16.63;;;12.20;92.90;;;;;;2080440;28;20037;-91
2021/10/26 04:13:26;;;;;;;19.80;16.15;;;12.20;92.90;;;;;;2081491;28;20068;-91
2021/10/26 04:14:27;;;;;;;21.00;16.70;;;12.20;92.90;;;;;;2078945;28;20502;-91
2021/10/26 04:15:28;;;;;;;20.88;16.38;;;12.20;92.90;;;;;;2080135;28;20041;-90
2021/10/26 04:16:29;;;;;;;20.58;16.20;;;12.20;92.90;;;;;;2075445;28;20057;-91
2021/10/26 04:17:29;;;;;;;22.85;16.95;;;12.20;92.90;;;;;;2076991;28;20062;-91
2021/10/26 04:18:30;;;;;;;22.92;17.65;;;12.20;92.90;;;;;;2060706;28;20457;-91
2021/10/26 04:19:31;;;;;;;21.75;16.83;;;12.10;92.90;;;;;;2068670;28;20529;-91
2021/10/26 04:20:32;;;;;;;23.00;16.65;;;12.20;92.90;;;;;;2085346;28;20030;-91
2021/10/26 04:21:32;;;;;;;22.50;17.05;;;12.20;92.90;;;;;;2067439;28;20457;-90
2021/10/26 04:22:33;;;;;;;22.63;16.63;;;12.20;92.90;;;;;;2066642;28;20040;-91
2021/10/26 04:23:34;;;;;;;22.30;16.88;;;12.10;92.90;;;;;;2073866;28;20061;-90
2021/10/26 04:24:35;;;;;;;22.88;17.35;;;12.20;92.90;;;;;;2073445;28;20026;-91
2021/10/26 04:25:36;;;;;;;22.88;16.52;;;12.20;92.90;;;;;;2066111;28;20425;-91
2021/10/26 04:26:37;;;;;;;22.23;16.33;;;12.10;92.90;;;;;;2067003;28;20523;-90
2021/10/26 04:27:38;;;;;;;23.55;17.50;;;12.20;92.90;;;;;;2073874;28;20222;-90
2021/10/26 04:28:38;;;;;;;21.67;16.85;;;12.20;92.90;;;;;;2064501;28;20039;-91
2021/10/26 04:29:41;;;;;;;23.98;16.88;;;12.20;92.90;;;;;;2072794;28;20062;-90
2021/10/26 04:30:43;;;;;;;21.33;15.93;;;12.10;92.90;;;;;;2074293;28;20046;-91
2021/10/26 04:31:44;;;;;;;22.35;17.23;;;12.10;92.80;;;;;;2074119;28;20042;-90
2021/10/26 04:32:45;;;;;;;23.05;16.38;;;12.10;92.90;;;;;;2073698;28;20092;-91
2021/10/26 04:33:46;;;;;;;20.80;15.85;;;12.10;92.90;;;;;;2077655;28;20044;-90
2021/10/26 04:34:48;;;;;;;21.23;15.80;;;12.10;92.90;;;;;;2081419;28;20120;-91
2021/10/26 04:35:48;;;;;;;20.85;16.27;;;12.10;92.90;;;;;;2078977;28;20091;-91
2021/10/26 04:36:49;;;;;;;23.17;16.45;;;12.10;92.90;;;;;;2073618;28;20124;-90
2021/10/26 04:37:52;;;;;;;21.63;15.98;;;12.10;92.90;;;;;;2065677;28;20038;-90
2021/10/26 04:38:52;;;;;;;22.77;16.25;;;12.10;92.90;;;;;;2081954;28;20045;-90
2021/10/26 04:39:53;;;;;;;21.88;15.40;;;12.10;92.90;;;;;;2080504;28;20120;-91
2021/10/26 04:40:57;;;;;;;23.73;16.60;;;12.20;92.90;;;;;;2065417;28;20405;-89
2021/10/26 04:41:58;;;;;;;22.75;15.68;;;12.10;92.90;;;;;;2064414;28;20089;-92
2021/10/26 04:43:00;;;;;;;21.35;15.77;;;12.10;92.90;;;;;;2066151;28;20046;-91
2021/10/26 04:44:04;;;;;;;21.20;15.52;;;12.10;92.90;;;;;;2073778;28;20056;-91
2021/10/26 04:45:06;;;;;;;24.52;16.05;;;12.10;92.90;;;;;;2074041;28;20036;-91
2021/10/26 04:46:06;;;;;;;21.02;15.27;;;12.10;92.90;;;;;;2073575;28;20034;-91
2021/10/26 04:47:08;;;;;;;21.02;15.65;;;12.20;92.90;;;;;;2057897;28;20382;-91
2021/10/26 04:48:16;;;;;;;21.92;16.05;;;12.10;92.90;;;;;;2065258;28;20038;-91
2021/10/26 04:49:16;;;;;;;22.40;15.35;;;12.10;92.90;;;;;;2081933;28;20041;-91
2021/10/26 04:50:19;;;;;;;21.73;15.75;;;12.20;93.00;;;;;;2068491;28;20042;-91
2021/10/26 04:51:19;;;;;;;22.63;15.50;;;12.20;92.90;;;;;;2081653;28;20037;-91
2021/10/26 04:52:20;;;;;;;23.20;16.65;;;12.10;92.90;;;;;;2076685;28;20138;-91
2021/10/26 04:53:22;;;;;;;23.20;15.80;;;12.10;92.90;;;;;;2073102;28;20518;-90
2021/10/26 04:54:23;;;;;;;23.95;15.48;;;12.10;92.90;;;;;;2073947;28;20554;-90
2021/10/26 04:55:24;;;;;;;22.92;16.30;;;12.10;92.90;;;;;;2074281;28;20038;-90
2021/10/26 04:56:24;;;;;;;22.13;15.55;;;12.10;92.90;;;;;;2076058;28;20057;-90
2021/10/26 04:57:25;;;;;;;22.38;15.82;;;12.10;92.90;;;;;;2075796;28;20042;-90
2021/10/26 04:58:26;;;;;;;21.20;14.82;;;12.10;93.00;;;;;;2073741;28;20069;-91
2021/10/26 04:59:27;;;;;;;23.00;16.10;;;12.10;93.00;;;;;;2072000;28;20504;-90
2021/10/26 05:00:29;;;;;;;22.73;15.57;;;12.10;93.00;;;;;;2068457;28;20137;-91
2021/10/26 05:01:30;;;;;;;23.92;15.82;;;12.10;93.00;;;;;;2065769;28;20504;-89
2021/10/26 05:02:31;;;;;;;21.30;15.35;;;12.10;93.00;;;;;;2060850;28;20107;-89
2021/10/26 05:03:32;;;;;;;23.35;16.33;;;12.10;93.00;;;;;;2073420;28;20069;-89
2021/10/26 05:04:33;;;;;;;24.13;16.00;;;12.00;92.90;;;;;;2075551;28;20104;-90
2021/10/26 05:05:34;;;;;;;23.38;15.57;;;12.10;93.00;;;;;;2078020;28;20055;-90
2021/10/26 05:06:34;;;;;;;21.23;15.93;;;12.00;92.90;;;;;;2073615;28;20042;-90
2021/10/26 05:07:35;;;;;;;21.15;15.60;;;12.10;93.00;;;;;;2068655;28;20057;-90
2021/10/26 05:08:36;;;;;;;23.88;16.13;;;12.10;93.00;;;;;;2072594;28;20181;-90
2021/10/26 05:09:37;;;;;;;24.55;17.05;;;12.00;93.00;;;;;;2064738;28;20045;-90
2021/10/26 05:10:38;;;;;;;23.35;16.77;;;12.00;93.00;;;;;;2071964;28;20412;-90